createdAt,value
2023-05-10T00:01:05.992Z,100810.44
2023-05-10T00:04:07.907Z,100816.56
2023-05-10T00:07:09.624Z,100797.31
2023-05-10T00:10:12.461Z,100749.47
2023-05-10T00:13:14.439Z,100790.31
2023-05-10T00:16:16.686Z,100810.38
2023-05-10T00:19:18.367Z,100789.41
2023-05-10T00:22:20.378Z,100788.53
2023-05-10T00:25:25.048Z,100797.34
2023-05-10T00:28:29.384Z,100789.59
2023-05-10T00:31:31.956Z,100787.97
2023-05-10T00:34:34.279Z,100789.78
2023-05-10T00:37:36.204Z,100775.91
2023-05-10T00:40:38.500Z,100776.78
2023-05-10T00:43:45.753Z,100780.31
2023-05-10T00:46:48.187Z,100776.81
2023-05-10T00:49:50.554Z,100788.16
2023-05-10T00:52:53.334Z,100684.69
2023-05-10T00:55:55.240Z,100782.00
2023-05-10T00:58:57.472Z,100763.78
2023-05-10T01:01:59.443Z,100767.28
2023-05-10T01:05:01.701Z,100771.72
2023-05-10T01:08:03.750Z,100772.53
2023-05-10T01:11:05.673Z,100706.53
2023-05-10T01:14:07.881Z,100773.44
2023-05-10T01:17:12.089Z,100776.06
2023-05-10T01:20:15.525Z,100767.50
2023-05-10T01:23:32.031Z,100777.91
2023-05-10T01:26:42.714Z,100771.84
2023-05-10T01:30:16.278Z,100761.50
2023-05-10T01:33:21.175Z,100778.00
2023-05-10T01:36:46.666Z,100782.34
2023-05-10T01:39:56.199Z,100770.19
2023-05-10T01:43:09.088Z,100772.84
2023-05-10T01:46:17.625Z,100764.13
2023-05-10T01:49:32.466Z,100764.19
2023-05-10T01:52:42.416Z,100764.16
2023-05-10T01:55:48.571Z,100750.34
2023-05-10T01:58:52.852Z,100754.63
2023-05-10T02:01:58.748Z,100744.25
2023-05-10T02:05:00.810Z,100761.66
2023-05-10T02:08:06.926Z,100752.09
2023-05-10T02:11:09.881Z,100719.06
2023-05-10T02:14:13.253Z,100705.13
2023-05-10T02:17:15.636Z,100746.84
2023-05-10T02:20:20.369Z,100741.56
2023-05-10T02:23:24.791Z,100745.06
2023-05-10T02:26:27.854Z,100747.69
2023-05-10T02:29:30.880Z,100727.72
2023-05-10T02:32:33.923Z,100737.28
2023-05-10T02:35:37.448Z,100683.38
2023-05-10T02:38:40.974Z,100734.75
2023-05-10T02:41:43.683Z,100740.94
2023-05-10T02:44:49.146Z,100737.50
2023-05-10T02:47:51.100Z,100721.03
2023-05-10T02:51:04.624Z,100734.19
2023-05-10T02:54:16.618Z,100740.34
2023-05-10T02:57:26.064Z,100741.19
2023-05-10T03:00:28.057Z,100740.38
2023-05-10T03:03:29.788Z,100737.91
2023-05-10T03:06:32.430Z,100745.75
2023-05-10T03:09:34.802Z,100743.97
2023-05-10T03:12:54.986Z,100717.09
2023-05-10T03:16:05.251Z,100719.69
2023-05-10T03:19:28.678Z,100743.16
2023-05-10T03:22:37.529Z,100729.25
2023-05-10T03:25:42.275Z,100743.19
2023-05-10T03:28:44.822Z,100651.97
2023-05-10T03:31:47.028Z,100740.66
2023-05-10T03:34:50.076Z,100718.00
2023-05-10T03:37:51.927Z,100736.28
2023-05-10T03:40:53.671Z,100672.78
2023-05-10T03:43:55.480Z,100719.69
2023-05-10T03:46:58.075Z,100730.13
2023-05-10T03:50:00.430Z,100730.19
2023-05-10T03:53:03.241Z,100718.78
2023-05-10T03:56:05.369Z,100695.34
2023-05-10T03:59:08.495Z,100737.94
2023-05-10T04:02:10.767Z,100727.44
2023-05-10T04:05:12.604Z,100732.66
2023-05-10T04:08:15.794Z,100714.38
2023-05-10T04:11:17.793Z,100728.25
2023-05-10T04:14:19.530Z,100737.81
2023-05-10T04:17:21.392Z,100700.41
2023-05-10T04:20:23.227Z,100684.69
2023-05-10T04:23:25.027Z,100725.56
2023-05-10T04:26:26.881Z,100723.81
2023-05-10T04:29:28.672Z,100726.38
2023-05-10T04:32:30.468Z,100735.91
2023-05-10T04:35:32.323Z,100738.44
2023-05-10T04:38:34.182Z,100742.72
2023-05-10T04:41:35.953Z,100729.56
2023-05-10T04:44:38.752Z,100704.38
2023-05-10T04:47:40.600Z,100741.66
2023-05-10T04:50:42.348Z,100748.50
2023-05-10T04:53:51.160Z,100726.72
2023-05-10T04:56:59.495Z,100720.53
2023-05-10T05:00:01.258Z,100738.63
2023-05-10T05:03:03.196Z,100744.56
2023-05-10T05:06:05.255Z,100746.91
2023-05-10T05:09:07.047Z,100712.41
2023-05-10T05:12:08.768Z,100714.19
2023-05-10T05:15:11.776Z,100743.34
2023-05-10T05:18:13.626Z,100736.81
2023-05-10T05:21:19.481Z,100734.66
2023-05-10T05:24:22.256Z,100610.31
2023-05-10T05:27:25.390Z,100737.75
2023-05-10T05:30:27.130Z,100711.81
2023-05-10T05:33:28.849Z,100729.31
2023-05-10T05:36:31.836Z,100731.97
2023-05-10T05:39:33.593Z,100719.94
2023-05-10T05:42:35.354Z,100722.41
2023-05-10T05:45:37.696Z,100720.22
2023-05-10T05:48:39.642Z,100728.13
2023-05-10T05:51:41.445Z,100714.09
2023-05-10T05:54:43.214Z,100718.97
2023-05-10T05:57:48.160Z,100731.69
2023-05-10T06:00:50.530Z,100724.41
2023-05-10T06:03:53.469Z,100703.91
2023-05-10T06:06:55.503Z,100703.66
2023-05-10T06:09:57.262Z,100715.69
2023-05-10T06:12:59.040Z,100706.13
2023-05-10T06:16:00.955Z,100707.66
2023-05-10T06:19:03.462Z,100712.16
2023-05-10T06:22:05.287Z,100719.28
2023-05-10T06:25:07.633Z,100721.34
2023-05-10T06:28:09.345Z,100707.16
2023-05-10T06:31:12.935Z,100715.56
2023-05-10T06:34:14.687Z,100675.16
2023-05-10T06:37:16.377Z,100718.34
2023-05-10T06:40:18.771Z,100715.91
2023-05-10T06:43:20.927Z,100719.03
2023-05-10T06:46:23.000Z,100706.31
2023-05-10T06:49:24.882Z,100716.03
2023-05-10T06:52:26.649Z,100718.84
2023-05-10T06:55:29.106Z,100721.50
2023-05-10T06:58:30.759Z,100719.31
2023-05-10T07:01:32.459Z,100727.97
2023-05-10T07:04:34.305Z,100716.94
2023-05-10T07:07:36.128Z,100723.34
2023-05-10T07:10:37.953Z,100712.63
2023-05-10T07:13:42.341Z,100717.34
2023-05-10T07:16:44.443Z,100721.34
2023-05-10T07:19:46.298Z,100724.44
2023-05-10T07:22:48.014Z,100707.53
2023-05-10T07:25:52.579Z,100711.97
2023-05-10T07:28:54.344Z,100674.75
2023-05-10T07:31:58.585Z,100712.06
2023-05-10T07:35:00.681Z,100729.56
2023-05-10T07:38:02.846Z,100716.88
2023-05-10T07:41:04.697Z,100728.06
2023-05-10T07:44:07.410Z,100722.19
2023-05-10T07:47:09.188Z,100710.44
2023-05-10T07:50:11.210Z,100671.91
2023-05-10T07:53:13.184Z,100721.28
2023-05-10T07:56:30.708Z,100716.22
2023-05-10T07:59:33.278Z,100703.75
2023-05-10T08:02:37.477Z,100707.00
2023-05-10T08:05:39.273Z,100704.81
2023-05-10T08:08:41.484Z,100720.28
2023-05-10T08:11:43.223Z,100713.91
2023-05-10T08:14:45.043Z,100684.19
2023-05-10T08:17:46.940Z,100734.34
2023-05-10T08:20:48.678Z,100711.22
2023-05-10T08:23:50.740Z,100716.56
2023-05-10T08:26:52.432Z,100715.03
2023-05-10T08:29:54.158Z,100712.91
2023-05-10T08:32:55.964Z,100703.03
2023-05-10T08:35:57.792Z,100705.59
2023-05-10T08:38:59.978Z,100712.69
2023-05-10T08:42:04.979Z,100716.81
2023-05-10T08:45:08.492Z,100714.22
2023-05-10T08:48:12.062Z,100707.97
2023-05-10T08:51:36.761Z,100723.34
2023-05-10T08:54:39.117Z,100724.28
2023-05-10T08:57:41.446Z,100707.56
2023-05-10T09:00:44.116Z,100701.81
2023-05-10T09:03:48.654Z,100707.19
2023-05-10T09:06:50.487Z,100706.19
2023-05-10T09:09:53.139Z,100700.34
2023-05-10T09:12:59.296Z,100694.94
2023-05-10T09:16:09.901Z,100672.16
2023-05-10T09:19:22.038Z,100687.47
2023-05-10T09:22:24.773Z,100666.09
2023-05-10T09:25:26.556Z,100693.34
2023-05-10T09:28:28.319Z,100672.44
2023-05-10T09:31:48.374Z,100684.78
2023-05-10T09:34:50.983Z,100683.72
2023-05-10T09:37:55.105Z,100667.00
2023-05-10T09:40:58.829Z,100653.47
2023-05-10T09:44:00.577Z,100666.28
2023-05-10T09:47:03.712Z,100666.28
2023-05-10T09:50:06.107Z,100668.53
2023-05-10T09:53:07.816Z,100587.03
2023-05-10T09:56:09.676Z,100648.00
2023-05-10T09:59:13.430Z,100642.69
2023-05-10T10:02:15.434Z,100660.69
2023-05-10T10:05:17.561Z,100641.06
2023-05-10T10:08:20.038Z,100638.13
2023-05-10T10:11:21.842Z,100644.78
2023-05-10T10:14:27.486Z,100646.47
2023-05-10T10:17:31.768Z,100642.63
2023-05-10T10:20:33.498Z,100631.38
2023-05-10T10:23:38.344Z,100595.19
2023-05-10T10:26:43.718Z,100615.63
2023-05-10T10:30:27.343Z,100629.75
2023-05-10T10:33:37.530Z,100624.38
2023-05-10T10:36:46.162Z,100627.81
2023-05-10T10:39:49.801Z,100617.69
2023-05-10T10:42:51.623Z,100605.41
2023-05-10T10:46:15.854Z,100611.19
2023-05-10T10:49:18.346Z,100600.91
2023-05-10T10:52:40.040Z,100591.66
2023-05-10T10:55:49.249Z,100603.44
2023-05-10T10:58:54.838Z,100589.09
2023-05-10T11:01:56.904Z,100581.69
2023-05-10T11:04:58.705Z,100576.69
2023-05-10T11:08:07.272Z,100543.00
2023-05-10T11:11:10.274Z,100569.16
2023-05-10T11:14:12.062Z,100567.22
2023-05-10T11:17:27.669Z,100563.59
2023-05-10T11:20:34.458Z,100557.81
2023-05-10T11:23:59.691Z,100577.31
2023-05-10T11:27:02.055Z,100571.28
2023-05-10T11:30:06.849Z,100536.78
2023-05-10T11:33:09.828Z,100564.03
2023-05-10T11:36:38.450Z,100558.00
2023-05-10T11:39:46.349Z,100560.19
2023-05-10T11:42:48.056Z,100506.97
2023-05-10T11:45:49.821Z,100541.75
2023-05-10T11:49:01.707Z,100550.00
2023-05-10T11:52:12.080Z,100518.25
2023-05-10T11:55:14.157Z,100548.06
2023-05-10T11:58:15.874Z,100521.78
2023-05-10T12:01:17.771Z,100522.66
2023-05-10T12:04:20.055Z,100544.41
2023-05-10T12:07:22.115Z,100525.44
2023-05-10T12:10:28.244Z,100537.63
2023-05-10T12:13:30.101Z,100538.47
2023-05-10T12:16:31.983Z,100528.13
2023-05-10T12:19:40.621Z,100543.25
2023-05-10T12:22:45.747Z,100497.34
2023-05-10T12:25:47.921Z,100525.66
2023-05-10T12:28:49.726Z,100480.75
2023-05-10T12:31:59.834Z,100536.16
2023-05-10T12:35:01.948Z,100505.50
2023-05-10T12:38:29.881Z,100509.16
2023-05-10T12:41:59.131Z,100521.59
2023-05-10T12:45:00.930Z,100479.88
2023-05-10T12:48:02.665Z,100508.09
2023-05-10T12:51:05.728Z,100499.94
2023-05-10T12:54:07.483Z,100501.84
2023-05-10T12:57:09.338Z,100480.41
2023-05-10T13:00:26.669Z,100494.97
2023-05-10T13:03:28.400Z,100472.25
2023-05-10T13:06:30.550Z,100487.34
2023-05-10T13:09:32.259Z,100483.00
2023-05-10T13:12:34.255Z,100473.94
2023-05-10T13:15:36.199Z,100480.72
2023-05-10T13:18:38.043Z,100465.44
2023-05-10T13:21:41.878Z,100468.53
2023-05-10T13:24:43.702Z,100465.38
2023-05-10T13:27:45.695Z,100453.72
2023-05-10T13:30:47.562Z,100452.69
2023-05-10T13:33:49.364Z,100449.16
2023-05-10T13:36:51.217Z,100448.91
2023-05-10T13:39:53.071Z,100451.81
2023-05-10T13:42:54.960Z,100438.00
2023-05-10T13:45:56.781Z,100389.06
2023-05-10T13:48:58.613Z,100454.59
2023-05-10T13:52:00.732Z,100422.25
2023-05-10T13:55:02.553Z,100405.22
2023-05-10T13:58:05.607Z,100435.94
2023-05-10T14:01:07.795Z,100444.09
2023-05-10T14:04:11.460Z,100425.44
2023-05-10T14:07:13.386Z,100430.06
2023-05-10T14:10:15.330Z,100421.50
2023-05-10T14:13:17.298Z,100414.94
2023-05-10T14:16:19.253Z,100423.63
2023-05-10T14:19:21.458Z,100421.28
2023-05-10T14:22:24.741Z,100403.06
2023-05-10T14:25:26.957Z,100401.34
2023-05-10T14:28:28.932Z,100410.25
2023-05-10T14:31:31.491Z,100408.75
2023-05-10T14:34:33.843Z,100417.41
2023-05-10T14:37:35.672Z,100424.69
2023-05-10T14:40:37.587Z,100413.03
2023-05-10T14:43:39.420Z,100423.00
2023-05-10T14:46:41.185Z,100413.47
2023-05-10T14:49:42.962Z,100405.84
2023-05-10T14:52:45.234Z,100408.75
2023-05-10T14:55:47.071Z,100399.88
2023-05-10T14:58:50.204Z,100408.00
2023-05-10T15:01:52.203Z,100411.00
2023-05-10T15:04:54.669Z,100394.28
2023-05-10T15:07:56.980Z,100384.00
2023-05-10T15:10:58.825Z,100400.81
2023-05-10T15:14:00.600Z,100399.53
2023-05-10T15:17:02.380Z,100398.59
2023-05-10T15:20:04.968Z,100397.06
2023-05-10T15:23:06.976Z,100385.69
2023-05-10T15:26:08.880Z,100391.66
2023-05-10T15:29:10.601Z,100383.72
2023-05-10T15:32:12.528Z,100372.44
2023-05-10T15:35:15.098Z,100395.16
2023-05-10T15:38:17.057Z,100396.44
2023-05-10T15:41:18.862Z,100373.63
2023-05-10T15:44:20.641Z,100386.28
2023-05-10T15:47:22.584Z,100373.53
2023-05-10T15:50:24.342Z,100384.22
2023-05-10T15:53:26.199Z,100391.75
2023-05-10T15:56:27.919Z,100378.38
2023-05-10T15:59:29.707Z,100379.72
2023-05-10T16:02:31.619Z,100373.94
2023-05-10T16:05:33.826Z,100389.53
2023-05-10T16:08:36.032Z,100321.13
2023-05-10T16:11:37.842Z,100370.28
2023-05-10T16:14:39.576Z,100326.25
2023-05-10T16:17:41.934Z,100362.47
2023-05-10T16:20:48.453Z,100322.06
2023-05-10T16:23:50.239Z,100321.88
2023-05-10T16:26:52.171Z,100373.19
2023-05-10T16:29:53.928Z,100375.97
2023-05-10T16:32:56.867Z,100376.94
2023-05-10T16:35:59.030Z,100380.31
2023-05-10T16:39:01.314Z,100378.31
2023-05-10T16:42:06.336Z,100387.94
2023-05-10T16:45:09.328Z,100364.16
2023-05-10T16:48:11.033Z,100380.09
2023-05-10T16:51:13.306Z,100385.81
2023-05-10T16:54:15.022Z,100401.47
2023-05-10T16:57:16.815Z,100367.50
2023-05-10T17:00:20.849Z,100394.03
2023-05-10T17:03:22.822Z,100400.16
2023-05-10T17:06:24.712Z,100398.97
2023-05-10T17:09:26.464Z,100397.78
2023-05-10T17:12:28.275Z,100363.34
2023-05-10T17:15:30.219Z,100402.06
2023-05-10T17:18:32.028Z,100404.94
2023-05-10T17:21:33.859Z,100396.69
2023-05-10T17:24:35.678Z,100403.38
2023-05-10T17:27:37.497Z,100398.56
2023-05-10T17:30:39.263Z,100399.41
2023-05-10T17:33:41.043Z,100417.22
2023-05-10T17:36:43.026Z,100407.47
2023-05-10T17:39:44.769Z,100420.72
2023-05-10T17:42:46.493Z,100380.84
2023-05-10T17:45:49.991Z,100407.00
2023-05-10T17:48:51.791Z,100419.69
2023-05-10T17:51:53.583Z,100420.03
2023-05-10T17:54:55.355Z,100416.97
2023-05-10T17:57:59.513Z,100426.72
2023-05-10T18:01:01.441Z,100425.13
2023-05-10T18:04:03.324Z,100435.47
2023-05-10T18:07:05.155Z,100418.81
2023-05-10T18:10:07.522Z,100441.28
2023-05-10T18:13:09.693Z,100448.09
2023-05-10T18:16:13.409Z,100436.81
2023-05-10T18:19:15.390Z,100454.00
2023-05-10T18:22:17.226Z,100457.19
2023-05-10T18:25:19.589Z,100423.38
2023-05-10T18:28:21.592Z,100457.28
2023-05-10T18:31:24.443Z,100470.13
2023-05-10T18:34:26.229Z,100448.53
2023-05-10T18:37:28.099Z,100465.06
2023-05-10T18:40:30.075Z,100471.16
2023-05-10T18:43:34.185Z,100473.59
2023-05-10T18:46:36.597Z,100473.25
2023-05-10T18:49:38.929Z,100473.25
2023-05-10T18:52:40.813Z,100476.78
2023-05-10T18:55:42.845Z,100475.75
2023-05-10T18:58:45.687Z,100479.44
2023-05-10T19:01:49.460Z,100488.38
2023-05-10T19:04:52.737Z,100480.09
2023-05-10T19:07:55.392Z,100476.13
2023-05-10T19:10:57.188Z,100488.59
2023-05-10T19:13:59.202Z,100455.28
2023-05-10T19:17:00.933Z,100446.84
2023-05-10T19:20:04.053Z,100402.47
2023-05-10T19:23:10.204Z,100458.84
2023-05-10T19:26:12.563Z,100483.50
2023-05-10T19:29:14.652Z,100486.38
2023-05-10T19:32:16.456Z,100490.16
2023-05-10T19:35:18.705Z,100495.47
2023-05-10T19:38:22.141Z,100491.56
2023-05-10T19:41:23.970Z,100477.09
2023-05-10T19:44:25.790Z,100491.00
2023-05-10T19:47:27.570Z,100476.91
2023-05-10T19:50:29.385Z,100496.00
2023-05-10T19:53:32.304Z,100498.78
2023-05-10T19:56:34.888Z,100516.63
2023-05-10T19:59:36.618Z,100502.13
2023-05-10T20:02:38.458Z,100496.25
2023-05-10T20:05:40.388Z,100504.41
2023-05-10T20:08:42.318Z,100509.47
2023-05-10T20:11:44.202Z,100502.94
2023-05-10T20:14:47.469Z,100511.78
2023-05-10T20:17:54.068Z,100526.88
2023-05-10T20:21:00.322Z,100504.41
2023-05-10T20:24:02.180Z,100509.00
2023-05-10T20:27:04.627Z,100499.69
2023-05-10T20:30:07.140Z,100508.53
2023-05-10T20:33:09.427Z,100517.47
2023-05-10T20:36:11.432Z,100518.00
2023-05-10T20:39:13.252Z,100512.91
2023-05-10T20:42:15.198Z,100522.53
2023-05-10T20:45:16.999Z,100515.84
2023-05-10T20:48:19.591Z,100522.16
2023-05-10T20:51:21.314Z,100509.44
2023-05-10T20:54:25.990Z,100510.53
2023-05-10T20:57:27.870Z,100499.53
2023-05-10T21:00:29.666Z,100501.72
2023-05-10T21:03:31.458Z,100511.41
2023-05-10T21:06:33.135Z,100499.53
2023-05-10T21:09:35.899Z,100510.00
2023-05-10T21:12:37.898Z,100483.38
2023-05-10T21:15:39.689Z,100521.78
2023-05-10T21:18:41.527Z,100521.94
2023-05-10T21:21:43.306Z,100504.03
2023-05-10T21:24:45.139Z,100506.72
2023-05-10T21:27:47.279Z,100527.84
2023-05-10T21:30:49.101Z,100509.69
2023-05-10T21:33:50.821Z,100500.34
2023-05-10T21:36:53.926Z,100523.19
2023-05-10T21:39:55.674Z,100518.16
2023-05-10T21:42:57.910Z,100520.91
2023-05-10T21:45:59.759Z,100520.22
2023-05-10T21:49:01.572Z,100538.53
2023-05-10T21:52:03.386Z,100524.53
2023-05-10T21:55:05.966Z,100489.22
2023-05-10T21:58:07.710Z,100527.25
2023-05-10T22:01:09.614Z,100533.28
2023-05-10T22:04:11.456Z,100510.88
2023-05-10T22:07:13.607Z,100520.38
2023-05-10T22:10:15.711Z,100514.44
2023-05-10T22:13:17.591Z,100542.41
2023-05-10T22:16:19.395Z,100536.50
2023-05-10T22:19:21.193Z,100533.13
2023-05-10T22:22:22.959Z,100537.31
2023-05-10T22:25:24.658Z,100547.19
2023-05-10T22:28:26.496Z,100539.44
2023-05-10T22:31:28.315Z,100526.53
2023-05-10T22:34:30.157Z,100502.50
2023-05-10T22:37:31.987Z,100544.16
2023-05-10T22:40:33.776Z,100535.56
2023-05-10T22:43:35.539Z,100540.00
2023-05-10T22:46:37.586Z,100527.22
2023-05-10T22:49:39.368Z,100532.56
2023-05-10T22:52:41.377Z,100523.13
2023-05-10T22:55:43.190Z,100550.09
2023-05-10T22:58:45.058Z,100538.00
2023-05-10T23:01:48.927Z,100546.94
2023-05-10T23:04:50.829Z,100551.31
2023-05-10T23:07:53.621Z,100540.88
2023-05-10T23:10:55.636Z,100559.03
2023-05-10T23:13:57.472Z,100553.81
2023-05-10T23:16:59.362Z,100552.19
2023-05-10T23:20:01.256Z,100537.50
2023-05-10T23:23:03.003Z,100554.06
2023-05-10T23:26:05.294Z,100536.72
2023-05-10T23:29:07.183Z,100544.56
2023-05-10T23:32:09.072Z,100541.16
2023-05-10T23:35:11.047Z,100546.34
2023-05-10T23:38:12.888Z,100547.47
2023-05-10T23:41:14.621Z,100552.78
2023-05-10T23:44:16.730Z,100565.06
2023-05-10T23:47:18.776Z,100558.19
2023-05-10T23:50:20.568Z,100561.94
2023-05-10T23:53:22.315Z,100529.75
2023-05-10T23:56:24.024Z,100556.97
2023-05-10T23:59:26.001Z,100532.75
